Time;durP1;ratioP1;P1;durP2;ratioP2;P2;SDS_P1;SDS_P2;PMS_P1;PMS_P2;Temp;Humidity;BMP_temperature;BMP_pressure;BME280_temperature;BME280_humidity;BME280_pressure;Samples;Min_cycle;Max_cycle;Signal;HPM_P1;HPM_P2
2023/12/27 00:00:51;;;;;;;5.57;2.90;;;23.40;56.10;;;;;;5113574;28;20027;-73
2023/12/27 00:03:17;;;;;;;4.95;2.85;;;23.40;56.10;;;;;;5113903;28;20445;-74
2023/12/27 00:05:43;;;;;;;7.78;2.60;;;23.40;56.20;;;;;;5113910;28;20038;-74
2023/12/27 00:08:09;;;;;;;4.57;2.58;;;23.40;56.20;;;;;;5094493;28;20131;-75
2023/12/27 00:10:35;;;;;;;4.13;2.85;;;23.40;56.10;;;;;;5113540;28;20035;-74
2023/12/27 00:13:01;;;;;;;6.32;2.97;;;23.40;56.20;;;;;;5094278;28;20038;-72
2023/12/27 00:15:27;;;;;;;4.00;2.75;;;23.40;56.20;;;;;;5113234;28;20042;-74
2023/12/27 00:17:53;;;;;;;7.30;3.15;;;23.40;56.20;;;;;;5113308;28;20024;-74
2023/12/27 00:20:19;;;;;;;4.38;3.10;;;23.40;56.20;;;;;;5113102;28;20103;-72
2023/12/27 00:22:46;;;;;;;5.50;2.95;;;23.40;56.10;;;;;;5112967;28;20035;-72
2023/12/27 00:25:12;;;;;;;7.13;3.15;;;23.40;56.10;;;;;;5113169;27;20106;-74
2023/12/27 00:27:38;;;;;;;4.05;2.63;;;23.40;56.10;;;;;;5112997;28;20031;-75
2023/12/27 00:30:05;;;;;;;6.18;2.78;;;23.50;56.20;;;;;;5111770;28;20028;-73
2023/12/27 00:32:32;;;;;;;3.50;3.00;;;23.40;56.10;;;;;;5045686;28;20807;-73
2023/12/27 00:34:58;;;;;;;6.07;2.90;;;23.40;56.10;;;;;;5091197;28;20032;-73
2023/12/27 00:37:24;;;;;;;4.72;3.20;;;23.50;56.10;;;;;;5092654;28;20043;-73
2023/12/27 00:39:50;;;;;;;7.47;2.88;;;23.30;56.00;;;;;;5090854;28;20775;-73
2023/12/27 00:42:16;;;;;;;4.85;2.90;;;23.30;56.10;;;;;;5092549;28;20032;-74
2023/12/27 00:44:42;;;;;;;4.35;2.58;;;23.30;56.10;;;;;;5090727;28;20071;-72
2023/12/27 00:47:08;;;;;;;7.30;3.40;;;23.40;56.10;;;;;;5092313;28;20063;-74
2023/12/27 00:49:35;;;;;;;4.90;2.90;;;23.30;56.10;;;;;;5092369;28;20036;-74
2023/12/27 00:52:01;;;;;;;6.90;2.90;;;23.20;56.00;;;;;;5091296;28;20036;-73
2023/12/27 00:54:27;;;;;;;6.63;3.05;;;23.30;56.10;;;;;;5090996;28;20028;-74
2023/12/27 00:56:53;;;;;;;3.35;2.67;;;23.20;56.00;;;;;;5092198;28;20402;-74
2023/12/27 00:59:19;;;;;;;4.70;3.17;;;23.20;56.00;;;;;;5092591;28;20039;-74
2023/12/27 01:01:45;;;;;;;7.50;3.05;;;23.30;56.20;;;;;;5112410;28;20040;-74
2023/12/27 01:04:11;;;;;;;11.65;3.20;;;23.20;56.10;;;;;;5112842;28;20031;-73
2023/12/27 01:06:38;;;;;;;3.67;2.67;;;23.20;56.10;;;;;;5112406;28;20450;-74
2023/12/27 01:09:05;;;;;;;5.35;3.13;;;23.10;56.10;;;;;;5112334;28;20114;-73
2023/12/27 01:11:31;;;;;;;4.82;3.00;;;23.20;56.10;;;;;;5094097;28;20036;-73
2023/12/27 01:13:57;;;;;;;8.07;3.20;;;23.20;56.00;;;;;;5111235;28;20097;-75
2023/12/27 01:16:24;;;;;;;6.00;3.00;;;23.30;56.10;;;;;;5111009;28;20058;-74
2023/12/27 01:18:50;;;;;;;7.68;3.78;;;23.20;56.10;;;;;;5112317;27;20044;-71
2023/12/27 01:21:16;;;;;;;5.40;2.92;;;23.20;56.10;;;;;;5110938;28;20032;-74
2023/12/27 01:23:42;;;;;;;5.35;2.85;;;23.30;56.20;;;;;;5052193;28;20048;-74
2023/12/27 01:26:08;;;;;;;4.53;3.15;;;23.20;56.10;;;;;;5068982;28;20123;-73
2023/12/27 01:28:34;;;;;;;6.72;3.50;;;23.30;56.20;;;;;;5068881;28;20044;-74
2023/12/27 01:31:01;;;;;;;4.68;2.58;;;23.40;56.20;;;;;;5068463;28;20039;-73
2023/12/27 01:33:28;;;;;;;4.18;2.47;;;23.20;56.10;;;;;;5068134;28;20086;-75
2023/12/27 01:35:54;;;;;;;5.40;2.88;;;23.20;56.00;;;;;;5068618;28;20048;-73
2023/12/27 01:38:20;;;;;;;4.82;3.08;;;23.20;56.10;;;;;;5068602;28;20123;-74
2023/12/27 01:40:51;;;;;;;5.82;3.10;;;23.00;56.00;;;;;;5068282;28;20399;-71
2023/12/27 01:43:17;;;;;;;5.68;2.97;;;23.20;56.10;;;;;;5052075;28;20412;-73
2023/12/27 01:45:47;;;;;;;5.40;3.30;;;23.20;56.10;;;;;;5068643;28;20037;-74
2023/12/27 01:48:14;;;;;;;7.95;3.80;;;23.10;56.10;;;;;;5068512;28;20044;-74
2023/12/27 01:50:40;;;;;;;5.53;3.85;;;23.30;56.20;;;;;;5068091;28;20031;-74
2023/12/27 01:53:08;;;;;;;4.20;2.55;;;23.10;56.10;;;;;;5035261;28;20543;-74
2023/12/27 01:55:35;;;;;;;4.95;2.70;;;23.10;56.10;;;;;;5051797;28;20534;-72
2023/12/27 01:58:02;;;;;;;4.20;2.63;;;23.10;56.10;;;;;;5051766;28;20369;-74
2023/12/27 02:00:29;;;;;;;6.82;2.85;;;23.10;56.20;;;;;;5078947;28;20047;-74
2023/12/27 02:02:56;;;;;;;3.75;2.67;;;23.10;56.30;;;;;;5109979;28;20046;-73
2023/12/27 02:05:22;;;;;;;6.53;2.90;;;23.20;56.30;;;;;;5075414;28;20044;-72
2023/12/27 02:07:49;;;;;;;6.05;2.42;;;23.10;56.20;;;;;;5075197;28;20046;-73
2023/12/27 02:10:15;;;;;;;10.07;2.88;;;23.00;56.20;;;;;;5093118;28;20092;-74
2023/12/27 02:12:41;;;;;;;3.75;2.63;;;23.10;56.20;;;;;;5110044;28;20170;-74
2023/12/27 02:15:08;;;;;;;4.45;2.63;;;23.10;56.20;;;;;;5109973;28;20475;-74
2023/12/27 02:17:34;;;;;;;4.90;2.88;;;23.10;56.20;;;;;;5111284;28;20047;-74
2023/12/27 02:20:02;;;;;;;4.65;2.60;;;23.10;56.20;;;;;;5091907;28;20445;-73
2023/12/27 02:22:30;;;;;;;3.28;2.65;;;23.10;56.20;;;;;;5091775;28;20044;-73
2023/12/27 02:24:56;;;;;;;8.05;3.72;;;23.10;56.20;;;;;;5110056;28;20052;-74
2023/12/27 02:27:23;;;;;;;4.00;2.78;;;23.20;56.10;;;;;;5091934;28;20050;-74
2023/12/27 02:29:49;;;;;;;7.45;2.95;;;23.10;56.10;;;;;;5111204;28;20032;-74
2023/12/27 02:32:15;;;;;;;5.28;3.05;;;23.00;56.00;;;;;;5111209;28;20168;-72
2023/12/27 02:34:41;;;;;;;6.13;3.33;;;23.10;56.10;;;;;;5092007;28;20040;-74
2023/12/27 02:37:07;;;;;;;4.43;2.50;;;23.00;56.00;;;;;;5108939;28;20032;-73
2023/12/27 02:39:33;;;;;;;4.45;2.50;;;23.00;56.10;;;;;;5111095;28;20032;-74
2023/12/27 02:41:59;;;;;;;3.33;2.30;;;23.10;56.10;;;;;;5109967;28;20046;-75
2023/12/27 02:44:26;;;;;;;5.35;3.08;;;23.10;56.10;;;;;;5094852;28;20044;-73
2023/12/27 02:46:55;;;;;;;7.97;2.97;;;23.00;56.00;;;;;;5115263;28;20039;-74
2023/12/27 02:49:21;;;;;;;4.90;3.42;;;23.00;56.00;;;;;;5113740;28;20051;-73
2023/12/27 02:51:48;;;;;;;5.18;3.35;;;22.90;56.10;;;;;;5115026;27;20095;-74
2023/12/27 02:54:14;;;;;;;3.28;2.72;;;23.00;56.10;;;;;;5115036;28;20118;-74
2023/12/27 02:56:40;;;;;;;4.53;2.70;;;22.80;56.00;;;;;;5115199;27;20036;-74
2023/12/27 02:59:08;;;;;;;5.47;2.78;;;23.00;56.10;;;;;;5114498;28;20046;-73
2023/12/27 03:01:35;;;;;;;6.15;3.08;;;22.90;56.20;;;;;;5114743;28;20394;-74
2023/12/27 03:04:01;;;;;;;3.88;2.85;;;22.90;56.10;;;;;;5115172;28;20047;-75
2023/12/27 03:06:28;;;;;;;8.00;3.17;;;23.00;56.10;;;;;;5113483;28;20042;-74
2023/12/27 03:08:54;;;;;;;5.47;3.05;;;23.10;56.20;;;;;;5113604;28;20415;-74
2023/12/27 03:11:20;;;;;;;9.70;4.25;;;23.00;56.10;;;;;;5113535;28;20035;-75
2023/12/27 03:13:46;;;;;;;4.68;2.92;;;23.00;56.10;;;;;;5096648;28;20031;-73
2023/12/27 03:16:12;;;;;;;5.47;3.53;;;23.10;56.20;;;;;;5114220;28;20134;-74
2023/12/27 03:18:38;;;;;;;4.82;3.17;;;23.00;56.00;;;;;;5114558;28;20081;-73
2023/12/27 03:21:05;;;;;;;3.90;3.38;;;23.00;56.00;;;;;;5088239;28;20036;-74
2023/12/27 03:23:31;;;;;;;4.88;3.72;;;23.00;56.00;;;;;;5074641;28;20419;-73
2023/12/27 03:25:57;;;;;;;5.40;3.72;;;23.10;56.10;;;;;;5074698;28;20140;-72
2023/12/27 03:28:24;;;;;;;4.30;3.58;;;22.90;56.00;;;;;;5091460;28;20058;-73
2023/12/27 03:30:50;;;;;;;8.50;4.03;;;23.00;56.00;;;;;;5091551;28;20040;-74
2023/12/27 03:33:18;;;;;;;5.68;3.88;;;23.00;56.00;;;;;;5091316;28;20036;-71
2023/12/27 03:35:44;;;;;;;5.90;4.28;;;22.90;55.90;;;;;;5091740;28;20043;-73
2023/12/27 03:38:10;;;;;;;8.85;3.55;;;22.80;55.90;;;;;;5091242;28;20036;-75
2023/12/27 03:40:36;;;;;;;9.05;3.70;;;22.90;56.00;;;;;;5074469;28;20036;-74
2023/12/27 03:43:03;;;;;;;4.50;3.08;;;22.90;56.00;;;;;;5091044;28;20138;-74
2023/12/27 03:45:29;;;;;;;3.75;3.15;;;22.70;55.90;;;;;;5091202;28;20592;-75
2023/12/27 03:47:55;;;;;;;5.88;3.45;;;22.80;55.90;;;;;;5074297;28;20115;-73
2023/12/27 03:50:22;;;;;;;4.68;3.20;;;22.90;56.00;;;;;;5090876;28;20048;-74
2023/12/27 03:52:49;;;;;;;9.30;6.38;;;22.70;55.90;;;;;;5074232;28;20098;-73
2023/12/27 03:55:17;;;;;;;4.70;3.00;;;22.80;56.00;;;;;;5073634;28;20076;-73
2023/12/27 03:57:43;;;;;;;4.78;2.78;;;22.90;56.10;;;;;;5094740;28;20036;-72
2023/12/27 04:00:10;;;;;;;6.47;2.97;;;22.70;56.00;;;;;;5073597;28;20063;-72
2023/12/27 04:02:36;;;;;;;8.65;2.97;;;22.90;56.10;;;;;;5073754;28;20048;-74
2023/12/27 04:05:03;;;;;;;4.50;2.80;;;22.80;55.90;;;;;;5090760;28;20056;-75
2023/12/27 04:07:29;;;;;;;7.53;3.20;;;22.80;55.90;;;;;;5091019;28;20123;-74
2023/12/27 04:09:55;;;;;;;4.93;2.75;;;22.90;56.00;;;;;;5090523;28;20044;-71
2023/12/27 04:12:22;;;;;;;4.78;3.08;;;22.90;55.60;;;;;;5090541;28;20052;-74
2023/12/27 04:14:48;;;;;;;3.88;2.58;;;22.80;55.60;;;;;;5090659;28;20059;-73
2023/12/27 04:17:15;;;;;;;4.95;3.17;;;22.90;56.00;;;;;;5073609;28;20135;-74
2023/12/27 04:19:41;;;;;;;5.25;3.72;;;23.00;55.90;;;;;;5090379;28;20036;-73
2023/12/27 04:22:07;;;;;;;6.40;3.67;;;22.80;55.80;;;;;;5039760;28;20071;-74
2023/12/27 04:24:34;;;;;;;4.80;3.13;;;22.90;55.50;;;;;;5090520;28;20055;-75
2023/12/27 04:27:02;;;;;;;6.95;3.60;;;22.90;55.80;;;;;;5090439;28;20054;-73
2023/12/27 04:29:28;;;;;;;7.05;3.67;;;22.90;55.80;;;;;;5090635;28;20472;-73
2023/12/27 04:31:54;;;;;;;4.60;3.28;;;22.90;55.80;;;;;;5073150;28;20051;-73
2023/12/27 04:34:20;;;;;;;4.97;3.03;;;22.70;55.70;;;;;;5088676;28;20043;-74
2023/12/27 04:36:49;;;;;;;5.25;3.40;;;22.80;55.70;;;;;;5090670;28;20131;-74
2023/12/27 04:39:15;;;;;;;7.97;4.03;;;22.80;55.70;;;;;;5091335;28;20131;-73
2023/12/27 04:41:41;;;;;;;9.25;3.95;;;22.70;55.70;;;;;;5091140;28;20395;-73
2023/12/27 04:44:07;;;;;;;7.07;3.90;;;22.70;55.70;;;;;;5091409;28;20044;-73
2023/12/27 04:46:36;;;;;;;9.30;5.28;;;22.70;55.70;;;;;;5057038;28;20068;-74
2023/12/27 04:49:08;;;;;;;5.85;3.90;;;22.60;55.60;;;;;;5092589;28;20036;-73
2023/12/27 04:51:36;;;;;;;;;;;22.70;55.80;;;;;;5092810;28;20038;-72
2023/12/27 04:54:02;;;;;;;6.10;3.90;;;22.70;55.80;;;;;;5069450;28;20008;-73
2023/12/27 04:56:29;;;;;;;5.20;3.28;;;22.70;55.60;;;;;;5048833;28;20088;-73
2023/12/27 04:58:55;;;;;;;5.85;3.88;;;22.80;55.60;;;;;;5032910;28;20805;-73
2023/12/27 05:01:21;;;;;;;6.97;3.78;;;22.90;55.70;;;;;;5049346;28;20783;-73
2023/12/27 05:03:47;;;;;;;6.28;3.00;;;22.90;55.60;;;;;;5049455;28;20482;-69
2023/12/27 05:06:14;;;;;;;4.50;3.13;;;23.00;55.70;;;;;;5049417;28;20051;-74
2023/12/27 05:08:41;;;;;;;5.88;3.50;;;22.90;55.60;;;;;;5048395;28;20048;-74
2023/12/27 05:11:25;;;;;;;5.10;3.58;;;22.80;55.50;;;;;;5049164;28;20037;-72
2023/12/27 05:13:51;;;;;;;4.70;2.75;;;23.00;55.60;;;;;;5049292;28;20041;-72
2023/12/27 05:16:19;;;;;;;3.08;1.80;;;23.20;59.20;;;;;;5049310;28;20059;-73
2023/12/27 05:18:45;;;;;;;2.08;1.88;;;23.80;59.10;;;;;;5032926;28;20076;-73
2023/12/27 05:21:13;;;;;;;5.10;2.15;;;24.30;56.50;;;;;;5049050;28;20488;-72
2023/12/27 05:23:39;;;;;;;3.08;2.33;;;24.20;56.80;;;;;;5049258;28;20045;-72
2023/12/27 05:26:06;;;;;;;3.08;2.20;;;24.10;53.80;;;;;;5064706;28;20083;-73
2023/12/27 05:28:32;;;;;;;6.95;3.08;;;23.90;52.70;;;;;;5066951;28;20040;-71
2023/12/27 05:30:59;;;;;;;8.77;4.18;;;23.80;51.90;;;;;;5068976;28;20106;-72
2023/12/27 05:33:25;;;;;;;8.30;4.65;;;23.70;51.20;;;;;;5052317;28;20481;-71
2023/12/27 05:35:51;;;;;;;9.60;4.70;;;23.40;50.50;;;;;;5068827;28;20567;-71
2023/12/27 05:38:18;;;;;;;10.00;3.70;;;23.30;50.30;;;;;;5068635;28;20048;-72
2023/12/27 05:40:44;;;;;;;7.43;4.43;;;23.30;50.70;;;;;;5068857;28;20044;-70
2023/12/27 05:43:10;;;;;;;5.85;4.07;;;23.10;51.30;;;;;;5068685;28;20071;-73
2023/12/27 05:45:37;;;;;;;15.40;4.82;;;23.10;51.70;;;;;;5068875;28;20036;-73
2023/12/27 05:48:03;;;;;;;5.20;4.05;;;23.00;52.10;;;;;;5068768;28;20132;-70
2023/12/27 05:50:29;;;;;;;4.75;3.30;;;23.10;52.50;;;;;;5068805;28;20040;-71
2023/12/27 05:52:55;;;;;;;5.75;3.45;;;23.10;52.80;;;;;;5068427;28;20037;-72
2023/12/27 05:55:23;;;;;;;8.30;5.50;;;23.10;53.00;;;;;;5068852;28;20036;-71
2023/12/27 05:57:49;;;;;;;8.00;4.60;;;23.00;53.00;;;;;;5076597;28;20046;-74
2023/12/27 06:00:15;;;;;;;5.53;3.83;;;23.20;53.10;;;;;;5075663;28;20036;-75
2023/12/27 06:02:42;;;;;;;5.10;3.58;;;23.00;53.10;;;;;;5101449;28;20024;-74
2023/12/27 06:05:11;;;;;;;8.20;4.75;;;23.00;53.30;;;;;;5100955;28;20106;-73
2023/12/27 06:07:37;;;;;;;8.40;5.32;;;23.10;53.60;;;;;;5100806;28;20031;-73
2023/12/27 06:10:05;;;;;;;7.63;5.22;;;23.00;53.70;;;;;;5100249;28;20032;-75
2023/12/27 06:12:31;;;;;;;7.38;5.45;;;22.90;53.80;;;;;;5102511;28;20035;-72
2023/12/27 06:15:00;;;;;;;8.32;5.53;;;23.10;54.00;;;;;;5107008;28;20030;-73
2023/12/27 06:17:30;;;;;;;10.57;4.83;;;23.00;54.00;;;;;;5098906;28;20138;-75
2023/12/27 06:19:56;;;;;;;7.35;4.80;;;23.00;54.20;;;;;;5098013;28;20039;-73
2023/12/27 06:22:22;;;;;;;7.00;4.28;;;23.00;54.30;;;;;;5100774;28;20115;-72
2023/12/27 06:24:48;;;;;;;7.85;3.85;;;23.00;53.90;;;;;;5103177;28;20047;-73
2023/12/27 06:27:14;;;;;;;7.32;4.40;;;23.00;54.00;;;;;;5111366;28;20028;-74
2023/12/27 06:29:41;;;;;;;3.08;2.50;;;22.80;54.00;;;;;;5091890;28;20456;-72
2023/12/27 06:32:07;;;;;;;4.50;2.33;;;22.80;54.30;;;;;;5111341;28;20092;-75
2023/12/27 06:34:33;;;;;;;2.53;2.33;;;22.90;54.50;;;;;;5110519;28;20049;-77
2023/12/27 06:36:59;;;;;;;2.50;2.03;;;22.80;54.50;;;;;;5108954;28;20043;-77
2023/12/27 06:39:25;;;;;;;5.18;1.80;;;22.80;54.40;;;;;;5111519;28;20089;-76
2023/12/27 06:41:51;;;;;;;3.78;2.42;;;22.80;54.00;;;;;;5111083;28;20041;-73
2023/12/27 06:44:18;;;;;;;5.35;2.45;;;22.90;53.40;;;;;;5111265;28;20043;-75
2023/12/27 06:46:44;;;;;;;4.72;2.63;;;22.70;52.80;;;;;;5075106;28;20082;-75
2023/12/27 06:49:10;;;;;;;4.80;2.70;;;22.80;52.40;;;;;;5110566;28;20467;-76
2023/12/27 06:51:36;;;;;;;3.22;2.75;;;22.80;53.40;;;;;;5111104;28;20075;-76
2023/12/27 06:54:02;;;;;;;4.72;2.63;;;22.80;52.90;;;;;;5111208;28;20035;-76
2023/12/27 06:56:28;;;;;;;3.83;2.33;;;22.70;52.60;;;;;;5111193;28;20036;-76
2023/12/27 06:58:54;;;;;;;9.38;5.45;;;22.90;52.50;;;;;;5111018;28;20039;-78
2023/12/27 07:01:20;;;;;;;8.60;5.75;;;22.80;52.80;;;;;;5102135;28;20431;-78
2023/12/27 07:03:46;;;;;;;15.35;6.47;;;22.80;53.30;;;;;;5091900;28;20105;-80
2023/12/27 07:06:12;;;;;;;15.77;5.82;;;22.70;54.00;;;;;;5093333;28;20491;-79
2023/12/27 07:08:38;;;;;;;10.25;6.38;;;22.70;54.30;;;;;;5110843;28;20031;-76
2023/12/27 07:11:05;;;;;;;7.57;5.78;;;22.70;54.30;;;;;;5111075;28;20039;-78
2023/12/27 07:13:31;;;;;;;12.48;6.00;;;22.60;54.40;;;;;;5110764;28;20051;-77
2023/12/27 07:15:57;;;;;;;10.88;5.90;;;22.60;54.70;;;;;;5110783;28;20073;-75
2023/12/27 07:18:23;;;;;;;11.77;6.20;;;22.80;54.80;;;;;;5109463;28;20032;-75
2023/12/27 07:20:49;;;;;;;11.57;6.30;;;22.60;55.40;;;;;;5110708;28;20039;-75
2023/12/27 07:23:15;;;;;;;12.52;7.20;;;22.70;56.20;;;;;;5109286;28;20127;-75
2023/12/27 07:25:42;;;;;;;13.05;6.72;;;22.70;56.40;;;;;;5110780;28;20023;-76
2023/12/27 07:28:08;;;;;;;16.00;6.85;;;22.70;56.50;;;;;;5091726;28;20047;-77
2023/12/27 07:30:34;;;;;;;12.20;6.93;;;22.60;56.30;;;;;;5103592;28;20144;-80
2023/12/27 07:33:00;;;;;;;13.60;8.50;;;22.70;56.90;;;;;;5093972;28;20105;-79
2023/12/27 07:35:26;;;;;;;15.50;7.65;;;22.60;57.10;;;;;;5093023;28;20036;-73
2023/12/27 07:37:52;;;;;;;12.27;7.82;;;22.70;57.30;;;;;;5092730;28;20055;-76
2023/12/27 07:40:19;;;;;;;13.98;8.63;;;22.80;57.60;;;;;;5094027;28;20123;-76
2023/12/27 07:42:45;;;;;;;14.93;8.68;;;22.80;57.70;;;;;;5093540;28;20119;-76
2023/12/27 07:45:11;;;;;;;13.55;8.32;;;22.90;57.90;;;;;;5093823;28;20032;-76
2023/12/27 07:47:37;;;;;;;11.75;6.63;;;22.90;57.30;;;;;;5092334;28;20157;-79
2023/12/27 07:50:03;;;;;;;12.82;8.07;;;22.90;56.80;;;;;;5093636;28;20395;-77
2023/12/27 07:52:29;;;;;;;13.05;8.38;;;22.90;56.40;;;;;;5092702;28;20039;-76
2023/12/27 07:54:58;;;;;;;13.90;8.27;;;22.70;56.10;;;;;;5074236;28;20580;-77
2023/12/27 07:57:24;;;;;;;13.13;7.43;;;23.00;55.90;;;;;;5070735;28;20492;-77
2023/12/27 07:59:55;;;;;;;12.52;7.82;;;23.00;55.90;;;;;;5070974;28;20044;-76
2023/12/27 08:02:21;;;;;;;13.10;6.78;;;23.00;56.00;;;;;;5070690;28;20119;-71
2023/12/27 08:04:47;;;;;;;9.93;6.53;;;23.00;55.90;;;;;;5070768;28;20044;-78
2023/12/27 08:07:13;;;;;;;8.93;6.18;;;22.90;55.80;;;;;;5070928;28;20032;-79
2023/12/27 08:09:40;;;;;;;8.98;5.47;;;23.00;55.80;;;;;;5054107;28;20112;-77
2023/12/27 08:12:06;;;;;;;9.30;5.00;;;23.10;55.70;;;;;;5070883;28;20040;-77
2023/12/27 08:14:33;;;;;;;8.60;4.68;;;23.10;55.70;;;;;;5070435;28;20172;-75
2023/12/27 08:16:59;;;;;;;9.00;5.30;;;23.10;55.80;;;;;;5070656;28;20547;-75
2023/12/27 08:19:25;;;;;;;8.13;4.32;;;23.10;55.80;;;;;;5070725;28;20078;-77
2023/12/27 08:21:51;;;;;;;6.68;2.85;;;23.10;55.80;;;;;;5070343;28;20139;-78
2023/12/27 08:24:17;;;;;;;5.03;3.08;;;23.20;55.10;;;;;;5070483;28;20040;-77
2023/12/27 08:26:43;;;;;;;4.43;3.30;;;23.20;55.50;;;;;;5070343;28;20040;-76
2023/12/27 08:29:09;;;;;;;5.50;3.53;;;23.20;55.40;;;;;;5053654;28;20044;-75
2023/12/27 08:31:35;;;;;;;5.15;3.75;;;23.40;55.60;;;;;;5085262;28;20035;-79
2023/12/27 08:34:02;;;;;;;3.30;2.60;;;23.50;55.20;;;;;;5094098;28;20047;-78
2023/12/27 08:36:32;;;;;;;3.90;2.90;;;23.70;55.10;;;;;;5111852;28;20428;-77
2023/12/27 08:38:58;;;;;;;5.28;3.30;;;23.70;54.30;;;;;;5111857;28;20582;-75
2023/12/27 08:41:25;;;;;;;5.97;3.40;;;23.70;52.80;;;;;;5112428;28;20032;-77
2023/12/27 08:43:54;;;;;;;10.20;6.72;;;23.80;53.90;;;;;;5076361;28;20051;-76
2023/12/27 08:46:21;;;;;;;8.48;7.20;;;23.90;54.40;;;;;;5110565;28;20454;-78
2023/12/27 08:48:47;;;;;;;10.13;6.82;;;23.80;53.20;;;;;;5113284;28;20027;-78
2023/12/27 08:51:13;;;;;;;5.88;4.00;;;23.80;52.40;;;;;;5112935;28;20440;-79
2023/12/27 08:53:39;;;;;;;3.95;3.47;;;23.90;51.50;;;;;;5112927;28;20027;-78
2023/12/27 08:56:07;;;;;;;5.05;3.20;;;24.00;49.60;;;;;;5111291;28;20046;-77
2023/12/27 08:58:33;;;;;;;5.45;2.70;;;23.90;48.40;;;;;;5112589;28;20047;-74
2023/12/27 09:01:00;;;;;;;1.60;1.20;;;24.00;49.70;;;;;;5089597;28;20047;-73
2023/12/27 09:03:26;;;;;;;1.15;1.08;;;24.00;49.90;;;;;;5047330;28;20065;-73
2023/12/27 09:05:52;;;;;;;2.58;1.40;;;24.10;50.90;;;;;;5048925;28;20068;-75
2023/12/27 09:08:18;;;;;;;2.22;1.23;;;24.20;51.40;;;;;;5012991;28;20082;-73
2023/12/27 09:10:44;;;;;;;2.08;0.90;;;24.00;51.70;;;;;;5030376;28;20421;-73
2023/12/27 09:13:10;;;;;;;1.38;1.02;;;24.20;52.10;;;;;;5048788;28;20045;-74
2023/12/27 09:15:36;;;;;;;0.80;0.80;;;24.20;52.10;;;;;;5048682;28;20036;-74
2023/12/27 09:18:03;;;;;;;4.57;1.55;;;24.20;52.10;;;;;;5049082;28;20065;-74
2023/12/27 09:20:29;;;;;;;2.65;0.90;;;24.20;52.30;;;;;;5048774;28;20032;-74
2023/12/27 09:22:55;;;;;;;2.03;1.40;;;24.30;52.50;;;;;;5049076;28;20336;-74
2023/12/27 09:25:21;;;;;;;5.35;1.27;;;24.10;52.60;;;;;;5048703;28;20898;-74
2023/12/27 09:27:48;;;;;;;1.48;1.10;;;24.20;52.80;;;;;;5028302;28;20037;-73
2023/12/27 09:30:14;;;;;;;1.77;1.13;;;24.30;53.00;;;;;;5028898;28;20048;-77
2023/12/27 09:32:42;;;;;;;2.15;1.05;;;24.30;53.30;;;;;;5029672;28;20048;-76
2023/12/27 09:35:09;;;;;;;4.10;1.42;;;24.30;53.60;;;;;;5064584;28;20054;-75
2023/12/27 09:37:35;;;;;;;3.83;1.48;;;24.30;53.80;;;;;;5083970;28;20048;-75
2023/12/27 09:40:03;;;;;;;2.33;1.40;;;24.40;53.70;;;;;;5112101;28;20437;-73
2023/12/27 09:42:35;;;;;;;0.82;0.82;;;24.30;53.80;;;;;;5110654;28;20538;-75
2023/12/27 09:45:07;;;;;;;1.17;1.08;;;24.30;53.90;;;;;;5110775;28;20107;-76
2023/12/27 09:47:34;;;;;;;7.10;2.17;;;24.30;53.90;;;;;;5112178;28;20038;-73
2023/12/27 09:50:03;;;;;;;3.95;2.20;;;24.50;54.10;;;;;;5112150;28;20031;-74
2023/12/27 09:52:33;;;;;;;4.75;2.40;;;24.60;52.20;;;;;;5111996;28;20035;-73
2023/12/27 09:55:00;;;;;;;7.72;3.72;;;24.70;50.80;;;;;;5111483;28;20036;-73
2023/12/27 09:57:27;;;;;;;3.10;2.38;;;24.60;48.90;;;;;;5110589;28;20042;-72
2023/12/27 09:59:55;;;;;;;3.60;1.85;;;24.60;50.20;;;;;;5110513;28;20039;-73
2023/12/27 10:02:28;;;;;;;2.63;1.92;;;24.70;51.20;;;;;;5111598;28;20130;-71
2023/12/27 10:05:05;;;;;;;5.93;1.90;;;24.80;52.00;;;;;;5111543;28;20452;-73
2023/12/27 10:07:32;;;;;;;2.65;1.80;;;24.70;52.30;;;;;;5110407;28;20487;-74
2023/12/27 10:09:59;;;;;;;2.47;1.77;;;24.70;52.20;;;;;;5110402;28;20102;-76
2023/12/27 10:12:26;;;;;;;3.22;1.63;;;24.70;51.30;;;;;;5092504;28;20036;-76
2023/12/27 10:14:55;;;;;;;3.70;1.45;;;24.70;51.00;;;;;;5091320;28;20036;-77
2023/12/27 10:17:21;;;;;;;0.98;0.98;;;24.70;50.60;;;;;;5071854;28;20063;-75
2023/12/27 10:19:48;;;;;;;2.85;1.30;;;24.70;50.60;;;;;;5091242;28;20036;-77
2023/12/27 10:22:14;;;;;;;2.05;1.45;;;24.70;51.20;;;;;;5089569;28;20032;-77
2023/12/27 10:24:41;;;;;;;5.18;1.77;;;24.80;52.60;;;;;;5110818;28;20047;-75
2023/12/27 10:27:08;;;;;;;4.18;2.22;;;24.70;54.00;;;;;;5111243;28;20039;-77
2023/12/27 10:29:35;;;;;;;0.90;0.90;;;24.70;54.10;;;;;;5111907;28;20046;-73
2023/12/27 10:32:08;;;;;;;1.48;1.27;;;24.80;53.20;;;;;;5111776;28;20043;-73
2023/12/27 10:34:34;;;;;;;5.30;1.70;;;24.70;52.80;;;;;;5109983;28;20043;-73
2023/12/27 10:37:01;;;;;;;2.75;1.60;;;24.70;52.50;;;;;;5110884;28;20031;-73
2023/12/27 10:39:27;;;;;;;1.10;0.93;;;24.70;52.30;;;;;;5111230;28;20040;-73
2023/12/27 10:41:53;;;;;;;3.15;1.52;;;24.80;52.10;;;;;;5111071;28;20039;-72
2023/12/27 10:44:20;;;;;;;1.73;1.40;;;24.80;52.00;;;;;;5110866;28;20701;-72
2023/12/27 10:46:46;;;;;;;1.58;1.40;;;24.70;52.10;;;;;;5109772;28;20111;-70
2023/12/27 10:49:13;;;;;;;2.33;1.00;;;24.70;52.00;;;;;;5111043;28;20031;-72
2023/12/27 10:51:40;;;;;;;1.75;1.55;;;24.70;52.00;;;;;;5111056;28;20114;-71
2023/12/27 10:54:07;;;;;;;4.05;1.58;;;24.90;52.30;;;;;;5111035;28;20036;-72
2023/12/27 10:56:39;;;;;;;1.58;1.27;;;24.70;52.40;;;;;;5111092;28;20088;-72
2023/12/27 10:59:07;;;;;;;1.63;1.52;;;24.80;52.60;;;;;;5111153;28;20031;-71
2023/12/27 11:01:38;;;;;;;2.22;1.15;;;24.80;52.80;;;;;;5111140;28;20024;-73
2023/12/27 11:04:08;;;;;;;3.78;2.17;;;24.90;52.90;;;;;;5111120;28;20436;-73
2023/12/27 11:06:39;;;;;;;1.23;1.13;;;24.80;52.90;;;;;;5112889;28;20161;-73
2023/12/27 11:09:13;;;;;;;2.45;1.20;;;24.90;52.90;;;;;;5114982;28;20035;-73
2023/12/27 11:11:40;;;;;;;2.47;1.13;;;24.70;52.80;;;;;;5115278;28;20024;-71
2023/12/27 11:14:13;;;;;;;1.13;0.90;;;24.90;53.00;;;;;;5115039;28;20489;-73
2023/12/27 11:16:40;;;;;;;1.73;0.95;;;24.70;52.80;;;;;;5114728;28;20063;-75
2023/12/27 11:19:07;;;;;;;1.92;1.20;;;24.70;52.70;;;;;;5114768;28;20046;-74
2023/12/27 11:21:39;;;;;;;2.35;1.20;;;24.80;52.90;;;;;;5075552;28;20351;-75
2023/12/27 11:24:06;;;;;;;1.97;1.10;;;24.70;53.00;;;;;;5078405;28;20051;-72
2023/12/27 11:26:36;;;;;;;1.33;1.00;;;24.70;52.90;;;;;;5114754;28;20368;-75
2023/12/27 11:29:10;;;;;;;3.15;1.17;;;24.70;53.00;;;;;;5114324;28;20409;-73
2023/12/27 11:31:38;;;;;;;1.30;1.10;;;24.70;52.90;;;;;;5114764;28;20149;-75
2023/12/27 11:34:05;;;;;;;1.42;1.17;;;24.80;53.00;;;;;;5114639;28;20399;-73
2023/12/27 11:36:31;;;;;;;2.90;1.00;;;24.80;53.10;;;;;;5112870;28;20490;-74
2023/12/27 11:39:00;;;;;;;1.38;0.82;;;24.70;53.10;;;;;;5094946;28;20134;-72
2023/12/27 11:41:26;;;;;;;1.35;1.15;;;24.60;53.60;;;;;;5114221;28;20035;-74
2023/12/27 11:44:05;;;;;;;3.90;1.30;;;24.70;53.70;;;;;;5114431;28;20039;-73
2023/12/27 11:46:32;;;;;;;2.15;1.58;;;24.70;53.60;;;;;;5113865;28;20032;-75
2023/12/27 11:49:00;;;;;;;3.95;2.00;;;24.70;54.40;;;;;;5114022;28;20040;-77
2023/12/27 11:51:36;;;;;;;31.25;4.88;;;25.00;54.90;;;;;;5090939;28;20054;-76
2023/12/27 11:54:04;;;;;;;2.45;1.77;;;25.80;54.90;;;;;;5074531;28;20040;-77
2023/12/27 11:56:37;;;;;;;6.65;2.53;;;26.20;46.40;;;;;;5073676;28;20415;-75
2023/12/27 11:59:08;;;;;;;5.38;2.45;;;26.00;44.80;;;;;;5040912;28;20036;-76
2023/12/27 12:01:36;;;;;;;5.10;2.72;;;25.80;50.80;;;;;;5090644;28;20047;-77
2023/12/27 12:04:21;;;;;;;9.82;3.90;;;25.70;51.90;;;;;;5090971;28;20174;-76
2023/12/27 12:06:52;;;;;;;3.95;2.10;;;25.60;55.70;;;;;;5090868;28;20487;-74
2023/12/27 12:09:20;;;;;;;2.85;2.25;;;25.90;57.90;;;;;;5090800;28;20114;-75
2023/12/27 12:11:47;;;;;;;2.95;2.17;;;26.40;59.30;;;;;;5078426;28;20052;-77
2023/12/27 12:14:15;;;;;;;4.18;2.38;;;26.50;62.50;;;;;;5070456;28;20044;-76
2023/12/27 12:16:41;;;;;;;1.75;1.30;;;26.50;58.80;;;;;;5049529;28;20145;-79
2023/12/27 12:19:11;;;;;;;2.28;1.75;;;26.50;59.20;;;;;;5033762;28;20041;-78
2023/12/27 12:21:38;;;;;;;1.17;1.08;;;26.30;55.60;;;;;;5036534;28;20377;-77
2023/12/27 12:24:08;;;;;;;1.83;1.67;;;26.20;54.10;;;;;;5070038;28;20037;-78
2023/12/27 12:26:36;;;;;;;0.95;0.90;;;26.00;53.50;;;;;;5070035;28;20087;-79
2023/12/27 12:29:05;;;;;;;2.05;1.25;;;26.00;53.20;;;;;;5071391;28;20033;-79
2023/12/27 12:31:31;;;;;;;3.78;1.10;;;25.90;52.60;;;;;;5053544;28;20135;-81
2023/12/27 12:33:58;;;;;;;0.85;0.85;;;25.80;52.60;;;;;;5070239;28;20078;-81
2023/12/27 12:36:25;;;;;;;1.80;1.67;;;25.80;52.60;;;;;;5070287;28;20044;-80
2023/12/27 12:38:52;;;;;;;1.25;1.00;;;25.70;52.60;;;;;;5072836;28;20052;-82
2023/12/27 12:41:19;;;;;;;1.05;0.85;;;25.60;52.30;;;;;;5070081;28;20032;-79
2023/12/27 12:43:45;;;;;;;1.63;1.15;;;25.50;52.40;;;;;;5069945;28;20191;-79